Time;durP1;ratioP1;P1;durP2;ratioP2;P2;SDS_P1;SDS_P2;PMS_P1;PMS_P2;Temp;Humidity;BMP_temperature;BMP_pressure;BME280_temperature;BME280_humidity;BME280_pressure;Samples;Min_cycle;Max_cycle;Signal;HPM_P1;HPM_P2
2023/09/12 00:00:26;;;;;;;;;;;;;;;;;;6218404;23;19986;-92
2023/09/12 00:02:52;;;;;;;;;;;;;;;;;;6244903;23;20437;-93
2023/09/12 00:05:18;;;;;;;;;;;;;;;;;;6219144;23;19931;-94
2023/09/12 00:07:44;;;;;;;;;;;;;;;;;;6245319;23;19910;-92
2023/09/12 00:10:10;;;;;;;;;;;;;;;;;;6218059;23;20361;-93
2023/09/12 00:12:36;;;;;;;;;;;;;;;;;;6217004;23;20147;-90
2023/09/12 00:15:04;;;;;;;;;;;;;;;;;;6219362;23;19938;-93
2023/09/12 00:17:30;;;;;;;;;;;;;;;;;;6217666;23;20262;-92
2023/09/12 00:19:56;;;;;;;;;;;;;;;;;;6217753;23;19939;-93
2023/09/12 00:22:21;;;;;;;;;;;;;;;;;;6217835;23;19986;-92
2023/09/12 00:24:47;;;;;;;;;;;;;;;;;;6218537;23;20328;-92
2023/09/12 00:27:13;;;;;;;;;;;;;;;;;;6217595;23;19907;-92
2023/09/12 00:29:39;;;;;;;;;;;;;;;;;;6217557;23;19908;-94
2023/09/12 00:32:05;;;;;;;;;;;;;;;;;;6216147;23;19907;-92
2023/09/12 00:34:31;;;;;;;;;;;;;;;;;;6216779;23;19907;-93
2023/09/12 00:36:57;;;;;;;;;;;;;;;;;;6216106;23;19947;-93
2023/09/12 00:39:23;;;;;;;;;;;;;;;;;;6218088;23;20038;-90
2023/09/12 00:41:49;;;;;;;;;;;;;;;;;;6216980;23;19970;-94
2023/09/12 00:44:15;;;;;;;;;;;;;;;;;;6243265;23;19907;-92
2023/09/12 00:46:41;;;;;;;;;;;;;;;;;;6244590;23;19914;-89
2023/09/12 00:49:07;;;;;;;;;;;;;;;;;;6241008;23;19912;-90
2023/09/12 00:51:33;;;;;;;;;;;;;;;;;;6212272;23;19914;-90
2023/09/12 00:53:59;;;;;;;;;;;;;;;;;;6214792;23;19938;-89
2023/09/12 00:56:25;;;;;;;;;;;;;;;;;;6216508;22;19958;-89
2023/09/12 00:58:51;;;;;;;;;;;;;;;;;;6219007;23;19908;-92
2023/09/12 01:01:17;;;;;;;;;;;;;;;;;;6218327;23;19911;-92
2023/09/12 01:03:45;;;;;;;;;;;;;;;;;;6219034;23;19908;-92
2023/09/12 01:06:11;;;;;;;;;;;;;;;;;;6218912;23;20285;-93
2023/09/12 01:08:38;;;;;;;;;;;;;;;;;;6218709;23;19914;-92
2023/09/12 01:11:04;;;;;;;;;;;;;;;;;;6218498;23;20318;-93
2023/09/12 01:13:30;;;;;;;;;;;;;;;;;;6217833;23;19910;-91
2023/09/12 01:15:55;;;;;;;;;;;;;;;;;;6218948;23;19907;-92
2023/09/12 01:18:21;;;;;;;;;;;;;;;;;;6218498;23;19908;-92
2023/09/12 01:20:48;;;;;;;;;;;;;;;;;;6218715;23;19990;-92
2023/09/12 01:23:15;;;;;;;;;;;;;;;;;;6218483;23;20474;-92
2023/09/12 01:25:41;;;;;;;;;;;;;;;;;;6218187;23;19904;-92
2023/09/12 01:28:07;;;;;;;;;;;;;;;;;;6219175;23;19912;-92
2023/09/12 01:30:33;;;;;;;;;;;;;;;;;;6217817;23;20226;-92
2023/09/12 01:32:59;;;;;;;;;;;;;;;;;;6218768;23;19904;-91
2023/09/12 01:35:25;;;;;;;;;;;;;;;;;;6219454;23;19953;-93
2023/09/12 01:37:50;;;;;;;;;;;;;;;;;;6216921;23;19938;-90
2023/09/12 01:40:17;;;;;;;;;;;;;;;;;;6244330;23;19977;-92
2023/09/12 01:42:43;;;;;;;;;;;;;;;;;;6243776;23;19911;-90
2023/09/12 01:45:08;;;;;;;;;;;;;;;;;;6217276;23;19915;-92
2023/09/12 01:47:35;;;;;;;;;;;;;;;;;;6215937;23;19903;-92
2023/09/12 01:50:00;;;;;;;;;;;;;;;;;;6242990;23;19911;-92
2023/09/12 01:52:26;;;;;;;;;;;;;;;;;;6215723;23;19911;-92
2023/09/12 01:54:52;;;;;;;;;;;;;;;;;;6217528;23;19911;-92
2023/09/12 01:57:21;;;;;;;;;;;;;;;;;;6216983;22;19931;-89
2023/09/12 01:59:48;;;;;;;;;;;;;;;;;;6213618;23;19908;-89
2023/09/12 02:02:14;;;;;;;;;;;;;;;;;;6212248;23;19907;-89
2023/09/12 02:04:40;;;;;;;;;;;;;;;;;;6214251;23;20246;-89
2023/09/12 02:07:06;;;;;;;;;;;;;;;;;;6213450;23;19942;-90
2023/09/12 02:09:32;;;;;;;;;;;;;;;;;;6214499;23;19904;-89
2023/09/12 02:11:58;;;;;;;;;;;;;;;;;;6213840;23;19904;-89
2023/09/12 02:14:23;;;;;;;;;;;;;;;;;;6213317;23;19907;-89
2023/09/12 02:16:49;;;;;;;;;;;;;;;;;;6214319;23;19914;-89
2023/09/12 02:19:15;;;;;;;;;;;;;;;;;;6240951;23;19914;-89
2023/09/12 02:21:42;;;;;;;;;;;;;;;;;;6215215;23;20219;-89
2023/09/12 02:24:11;;;;;;;;;;;;;;;;;;6214666;23;19907;-89
2023/09/12 02:26:37;;;;;;;;;;;;;;;;;;6214590;23;19931;-89
2023/09/12 02:29:03;;;;;;;;;;;;;;;;;;6213963;23;19914;-89
2023/09/12 02:31:29;;;;;;;;;;;;;;;;;;6213589;23;19908;-89
2023/09/12 02:33:55;;;;;;;;;;;;;;;;;;6214174;23;20352;-89
2023/09/12 02:36:21;;;;;;;;;;;;;;;;;;6241340;23;19903;-88
2023/09/12 02:38:47;;;;;;;;;;;;;;;;;;6213136;23;19911;-88
2023/09/12 02:41:13;;;;;;;;;;;;;;;;;;6214446;23;19962;-88
2023/09/12 02:43:39;;;;;;;;;;;;;;;;;;6214069;23;19907;-88
2023/09/12 02:46:05;;;;;;;;;;;;;;;;;;6239825;23;20039;-88
2023/09/12 02:48:31;;;;;;;;;;;;;;;;;;6214308;23;19908;-88
2023/09/12 02:50:57;;;;;;;;;;;;;;;;;;6214483;23;19953;-88
2023/09/12 02:53:23;;;;;;;;;;;;;;;;;;6240905;23;19908;-88
2023/09/12 02:55:49;;;;;;;;;;;;;;;;;;6215129;22;19970;-89
2023/09/12 02:58:15;;;;;;;;;;;;;;;;;;6214925;23;19907;-88
2023/09/12 03:00:42;;;;;;;;;;;;;;;;;;6215907;23;19908;-88
2023/09/12 03:03:09;;;;;;;;;;;;;;;;;;6243700;23;19912;-88
2023/09/12 03:05:35;;;;;;;;;;;;;;;;;;6216263;23;19975;-88
2023/09/12 03:08:03;;;;;;;;;;;;;;;;;;6221265;23;19959;-90
2023/09/12 03:10:29;;;;;;;;;;;;;;;;;;6224196;23;19990;-89
2023/09/12 03:12:55;;;;;;;;;;;;;;;;;;6223624;23;20280;-90
2023/09/12 03:15:20;;;;;;;;;;;;;;;;;;6223057;23;19907;-89
2023/09/12 03:17:46;;;;;;;;;;;;;;;;;;6225961;23;19906;-92
2023/09/12 03:20:12;;;;;;;;;;;;;;;;;;6225497;23;19903;-91
2023/09/12 03:22:41;;;;;;;;;;;;;;;;;;6250595;23;19930;-92
2023/09/12 03:25:07;;;;;;;;;;;;;;;;;;6224596;23;19908;-92
2023/09/12 03:27:33;;;;;;;;;;;;;;;;;;6222657;23;19930;-92
2023/09/12 03:29:59;;;;;;;;;;;;;;;;;;6217874;23;19994;-90
2023/09/12 03:32:25;;;;;;;;;;;;;;;;;;6218359;23;19914;-92
2023/09/12 03:34:51;;;;;;;;;;;;;;;;;;6244827;23;19911;-91
2023/09/12 03:37:17;;;;;;;;;;;;;;;;;;6218321;23;19918;-93
2023/09/12 03:39:43;;;;;;;;;;;;;;;;;;6218318;23;19904;-92
2023/09/12 03:42:09;;;;;;;;;;;;;;;;;;6217614;23;20433;-92
2023/09/12 03:44:35;;;;;;;;;;;;;;;;;;6217625;23;19987;-92
2023/09/12 03:47:01;;;;;;;;;;;;;;;;;;6217268;23;19978;-93
2023/09/12 03:49:33;;;;;;;;;;;;;;;;;;6217081;23;20437;-93
2023/09/12 03:51:59;;;;;;;;;;;;;;;;;;6217797;23;19911;-92
2023/09/12 03:54:25;;;;;;;;;;;;;;;;;;6217795;22;19907;-93
2023/09/12 03:56:50;;;;;;;;;;;;;;;;;;6218789;22;19919;-93
2023/09/12 03:59:17;;;;;;;;;;;;;;;;;;6244537;23;19912;-92
2023/09/12 04:01:43;;;;;;;;;;;;;;;;;;6217982;23;19908;-93
2023/09/12 04:04:08;;;;;;;;;;;;;;;;;;6218401;23;20093;-92
2023/09/12 04:06:34;;;;;;;;;;;;;;;;;;6218172;23;19908;-90
2023/09/12 04:09:00;;;;;;;;;;;;;;;;;;6217227;23;19919;-91
2023/09/12 04:11:26;;;;;;;;;;;;;;;;;;6217469;23;19974;-91
2023/09/12 04:13:52;;;;;;;;;;;;;;;;;;6215928;23;19907;-92
2023/09/12 04:16:21;;;;;;;;;;;;;;;;;;6215834;23;19907;-90
2023/09/12 04:18:47;;;;;;;;;;;;;;;;;;6217672;23;20301;-93
2023/09/12 04:21:13;;;;;;;;;;;;;;;;;;6216926;23;19911;-91
2023/09/12 04:23:39;;;;;;;;;;;;;;;;;;6244391;23;19904;-93
2023/09/12 04:26:05;;;;;;;;;;;;;;;;;;6217550;23;19908;-94
2023/09/12 04:28:31;;;;;;;;;;;;;;;;;;6218013;23;20009;-92
2023/09/12 04:30:57;;;;;;;;;;;;;;;;;;6244552;23;19994;-94
2023/09/12 04:33:23;;;;;;;;;;;;;;;;;;6216966;23;19911;-93
2023/09/12 04:35:49;;;;;;;;;;;;;;;;;;6217316;23;19914;-90
2023/09/12 04:38:15;;;;;;;;;;;;;;;;;;6217265;23;19904;-94
2023/09/12 04:40:41;;;;;;;;;;;;;;;;;;6216533;23;19915;-93
2023/09/12 04:43:07;;;;;;;;;;;;;;;;;;6217307;23;19986;-91
2023/09/12 04:45:33;;;;;;;;;;;;;;;;;;6215579;23;19907;-93
2023/09/12 04:47:59;;;;;;;;;;;;;;;;;;6216743;23;19996;-93
2023/09/12 04:50:25;;;;;;;;;;;;;;;;;;6243515;23;19959;-93
2023/09/12 04:52:51;;;;;;;;;;;;;;;;;;6217242;23;19903;-93
2023/09/12 04:55:17;;;;;;;;;;;;;;;;;;6217193;23;19958;-93
2023/09/12 04:57:43;;;;;;;;;;;;;;;;;;6244769;22;19916;-93
2023/09/12 05:00:10;;;;;;;;;;;;;;;;;;6216813;23;19908;-94
2023/09/12 05:02:36;;;;;;;;;;;;;;;;;;6217161;23;19908;-93
2023/09/12 05:05:03;;;;;;;;;;;;;;;;;;6243771;23;19910;-92
2023/09/12 05:07:29;;;;;;;;;;;;;;;;;;6217205;23;19904;-93
2023/09/12 05:10:03;;;;;;;;;;;;;;;;;;6244466;23;20416;-93
2023/09/12 05:12:29;;;;;;;;;;;;;;;;;;6217116;23;19918;-92
2023/09/12 05:14:55;;;;;;;;;;;;;;;;;;6216095;23;19951;-93
2023/09/12 05:17:21;;;;;;;;;;;;;;;;;;6217137;23;19935;-93
2023/09/12 05:19:47;;;;;;;;;;;;;;;;;;6217405;23;19933;-93
2023/09/12 05:22:13;;;;;;;;;;;;;;;;;;6218536;23;20436;-93
2023/09/12 05:24:39;;;;;;;;;;;;;;;;;;6245962;23;19915;-91
2023/09/12 05:27:05;;;;;;;;;;;;;;;;;;6223007;23;19914;-93
2023/09/12 05:29:31;;;;;;;;;;;;;;;;;;6223131;23;20711;-92
2023/09/12 05:31:57;;;;;;;;;;;;;;;;;;6221706;23;19918;-92
2023/09/12 05:34:23;;;;;;;;;;;;;;;;;;6222795;23;19907;-92
2023/09/12 05:36:49;;;;;;;;;;;;;;;;;;6222598;23;20010;-89
2023/09/12 05:39:15;;;;;;;;;;;;;;;;;;6222150;23;19908;-90
2023/09/12 05:41:41;;;;;;;;;;;;;;;;;;6222389;23;19938;-89
2023/09/12 05:44:07;;;;;;;;;;;;;;;;;;6222255;23;19907;-89
2023/09/12 05:46:33;;;;;;;;;;;;;;;;;;6221194;23;19908;-89
2023/09/12 05:48:59;;;;;;;;;;;;;;;;;;6220332;23;19934;-89
2023/09/12 05:51:25;;;;;;;;;;;;;;;;;;6247313;23;19915;-89
2023/09/12 05:53:51;;;;;;;;;;;;;;;;;;6220574;23;19911;-90
2023/09/12 05:56:17;;;;;;;;;;;;;;;;;;6221019;22;20273;-91
2023/09/12 05:58:46;;;;;;;;;;;;;;;;;;6219721;23;19918;-89
2023/09/12 06:01:12;;;;;;;;;;;;;;;;;;6245191;23;19911;-89
2023/09/12 06:03:38;;;;;;;;;;;;;;;;;;6245425;23;19904;-90
2023/09/12 06:06:04;;;;;;;;;;;;;;;;;;6244207;23;20237;-89
2023/09/12 06:08:31;;;;;;;;;;;;;;;;;;6220496;23;19927;-89
2023/09/12 06:10:56;;;;;;;;;;;;;;;;;;6220269;23;19904;-90
2023/09/12 06:13:22;;;;;;;;;;;;;;;;;;6218862;23;20369;-89
2023/09/12 06:15:48;;;;;;;;;;;;;;;;;;6219845;23;19914;-89
2023/09/12 06:18:14;;;;;;;;;;;;;;;;;;6218551;23;19993;-89
2023/09/12 06:20:44;;;;;;;;;;;;;;;;;;6220207;23;19926;-89
2023/09/12 06:23:10;;;;;;;;;;;;;;;;;;6217920;23;20748;-89
2023/09/12 06:25:36;;;;;;;;;;;;;;;;;;6219821;23;19931;-89
2023/09/12 06:28:02;;;;;;;;;;;;;;;;;;6219704;23;20286;-89
2023/09/12 06:30:28;;;;;;;;;;;;;;;;;;6218228;23;19912;-89
2023/09/12 06:32:54;;;;;;;;;;;;;;;;;;6245236;23;19908;-89
2023/09/12 06:35:20;;;;;;;;;;;;;;;;;;6220474;23;19956;-89
2023/09/12 06:37:47;;;;;;;;;;;;;;;;;;6220168;23;19903;-91
2023/09/12 06:40:12;;;;;;;;;;;;;;;;;;6248950;23;20328;-91
2023/09/12 06:42:38;;;;;;;;;;;;;;;;;;6221382;23;20193;-94
2023/09/12 06:45:08;;;;;;;;;;;;;;;;;;6221420;23;19991;-92
2023/09/12 06:47:34;;;;;;;;;;;;;;;;;;6219319;23;19907;-89
2023/09/12 06:49:59;;;;;;;;;;;;;;;;;;6245133;23;19908;-89
2023/09/12 06:52:43;;;;;;;;;;;;;;;;;;6218168;23;19971;-89
2023/09/12 07:06:08;;;;;;;;;;;;;;;;;;5833602;22;8685365;-88
2023/09/12 07:08:35;;;;;;;;;;;;;;;;;;6167314;23;19928;-89
2023/09/12 07:11:05;;;;;;;;;;;;;;;;;;6167393;23;19954;-89
2023/09/12 07:13:31;;;;;;;;;;;;;;;;;;6165707;23;19919;-88
2023/09/12 07:15:57;;;;;;;;;;;;;;;;;;6168185;23;19908;-89
2023/09/12 07:18:23;;;;;;;;;;;;;;;;;;6167589;23;20519;-88
2023/09/12 07:20:49;;;;;;;;;;;;;;;;;;6168223;23;19912;-87
2023/09/12 07:23:15;;;;;;;;;;;;;;;;;;6167765;23;19908;-88
2023/09/12 07:25:41;;;;;;;;;;;;;;;;;;6168197;23;19955;-88
2023/09/12 07:28:07;;;;;;;;;;;;;;;;;;6190867;23;19904;-88
2023/09/12 07:30:33;;;;;;;;;;;;;;;;;;6162114;23;19915;-87
2023/09/12 07:32:59;;;;;;;;;;;;;;;;;;6161779;23;19908;-88
2023/09/12 07:35:25;;;;;;;;;;;;;;;;;;6162266;23;19924;-88
2023/09/12 07:37:51;;;;;;;;;;;;;;;;;;6161146;23;19908;-87
2023/09/12 07:40:17;;;;;;;;;;;;;;;;;;6162277;23;19915;-88
2023/09/12 07:42:43;;;;;;;;;;;;;;;;;;6161968;23;19908;-88
2023/09/12 07:45:09;;;;;;;;;;;;;;;;;;6160274;23;19908;-88
2023/09/12 07:47:38;;;;;;;;;;;;;;;;;;6162731;23;20334;-93
2023/09/12 07:50:06;;;;;;;;;;;;;;;;;;6165558;23;20496;-92
2023/09/12 07:52:32;;;;;;;;;;;;;;;;;;6191320;23;19915;-91
2023/09/12 07:54:58;;;;;;;;;;;;;;;;;;6164620;23;19916;-92
2023/09/12 07:57:24;;;;;;;;;;;;;;;;;;6164107;23;20315;-88
2023/09/12 07:59:50;;;;;;;;;;;;;;;;;;6161883;23;19915;-88
2023/09/12 08:02:16;;;;;;;;;;;;;;;;;;6161323;23;19905;-88
2023/09/12 08:04:42;;;;;;;;;;;;;;;;;;6163949;23;19920;-88
2023/09/12 08:07:07;;;;;;;;;;;;;;;;;;6180526;23;19939;-88
2023/09/12 08:09:33;;;;;;;;;;;;;;;;;;6154595;23;19904;-88
2023/09/12 08:11:59;;;;;;;;;;;;;;;;;;6154614;23;20401;-88
2023/09/12 08:14:25;;;;;;;;;;;;;;;;;;6153826;23;19958;-87
2023/09/12 08:16:54;;;;;;;;;;;;;;;;;;6153341;23;19966;-88
2023/09/12 08:19:20;;;;;;;;;;;;;;;;;;6155864;23;19918;-87
2023/09/12 08:21:46;;;;;;;;;;;;;;;;;;6154273;23;19928;-88
2023/09/12 08:24:12;;;;;;;;;;;;;;;;;;6155377;23;19916;-87
2023/09/12 08:26:38;;;;;;;;;;;;;;;;;;6154961;23;19912;-87
2023/09/12 08:29:04;;;;;;;;;;;;;;;;;;6180517;23;19919;-88
2023/09/12 08:31:31;;;;;;;;;;;;;;;;;;6154043;23;20202;-88
2023/09/12 08:33:57;;;;;;;;;;;;;;;;;;6154169;23;19977;-87
2023/09/12 08:36:23;;;;;;;;;;;;;;;;;;6154881;23;19916;-88
2023/09/12 08:38:48;;;;;;;;;;;;;;;;;;6155543;23;19904;-88
2023/09/12 08:41:14;;;;;;;;;;;;;;;;;;6180514;23;19915;-87
2023/09/12 08:43:40;;;;;;;;;;;;;;;;;;6154665;23;19983;-88
2023/09/12 08:46:06;;;;;;;;;;;;;;;;;;6180417;23;19915;-87
2023/09/12 08:48:32;;;;;;;;;;;;;;;;;;6153941;23;19942;-88
2023/09/12 08:50:58;;;;;;;;;;;;;;;;;;6154131;23;19991;-87
2023/09/12 08:53:24;;;;;;;;;;;;;;;;;;6181117;23;19911;-89
2023/09/12 08:55:51;;;;;;;;;;;;;;;;;;6154594;23;20227;-89
2023/09/12 08:58:17;;;;;;;;;;;;;;;;;;6154061;23;20341;-89
2023/09/12 09:00:43;;;;;;;;;;;;;;;;;;6154163;23;19911;-88
2023/09/12 09:03:09;;;;;;;;;;;;;;;;;;6154514;23;19908;-88
2023/09/12 09:05:35;;;;;;;;;;;;;;;;;;6158203;23;19951;-89
2023/09/12 09:08:01;;;;;;;;;;;;;;;;;;6154882;23;20393;-89
2023/09/12 09:10:32;;;;;;;;;;;;;;;;;;6155221;23;19904;-89
2023/09/12 09:12:58;;;;;;;;;;;;;;;;;;6153983;23;19908;-89
2023/09/12 09:15:24;;;;;;;;;;;;;;;;;;6154626;23;19912;-89
2023/09/12 09:17:50;;;;;;;;;;;;;;;;;;6155080;23;20323;-89
2023/09/12 09:20:17;;;;;;;;;;;;;;;;;;6153426;23;20048;-89
2023/09/12 09:22:43;;;;;;;;;;;;;;;;;;6154783;23;19928;-88
2023/09/12 09:25:09;;;;;;;;;;;;;;;;;;6154951;23;19915;-89
2023/09/12 09:27:35;;;;;;;;;;;;;;;;;;6154393;23;19912;-89
2023/09/12 09:30:01;;;;;;;;;;;;;;;;;;6179866;23;19915;-89
2023/09/12 09:32:26;;;;;;;;;;;;;;;;;;6154338;23;19954;-89
2023/09/12 09:34:52;;;;;;;;;;;;;;;;;;6154779;23;19951;-88
2023/09/12 09:37:19;;;;;;;;;;;;;;;;;;6154528;23;19940;-89
2023/09/12 09:39:47;;;;;;;;;;;;;;;;;;6154274;23;19910;-89
2023/09/12 09:42:13;;;;;;;;;;;;;;;;;;6180680;23;19908;-89
2023/09/12 09:44:39;;;;;;;;;;;;;;;;;;6180900;23;19935;-89
2023/09/12 09:47:05;;;;;;;;;;;;;;;;;;6154640;23;19910;-89
2023/09/12 09:49:34;;;;;;;;;;;;;;;;;;6154789;23;19991;-89
2023/09/12 09:52:00;;;;;;;;;;;;;;;;;;6180614;23;19904;-89
2023/09/12 09:54:27;;;;;;;;;;;;;;;;;;6153885;23;19915;-89
2023/09/12 09:56:53;;;;;;;;;;;;;;;;;;6154852;23;19908;-89
2023/09/12 09:59:19;;;;;;;;;;;;;;;;;;6154670;23;19924;-89
2023/09/12 10:01:48;;;;;;;;;;;;;;;;;;6154713;23;19975;-89
2023/09/12 10:04:14;;;;;;;;;;;;;;;;;;6180820;23;19904;-89
2023/09/12 10:06:40;;;;;;;;;;;;;;;;;;6156342;23;19992;-90
2023/09/12 10:09:06;;;;;;;;;;;;;;;;;;6153769;23;19901;-88
2023/09/12 10:11:32;;;;;;;;;;;;;;;;;;6153461;23;19912;-89
2023/09/12 10:13:59;;;;;;;;;;;;;;;;;;6153375;23;20387;-89
2023/09/12 10:16:25;;;;;;;;;;;;;;;;;;6154091;23;20246;-90
2023/09/12 10:18:51;;;;;;;;;;;;;;;;;;6155956;23;19927;-89
2023/09/12 10:21:17;;;;;;;;;;;;;;;;;;6154910;23;20274;-88
2023/09/12 10:23:43;;;;;;;;;;;;;;;;;;6155173;23;19904;-88
2023/09/12 10:26:08;;;;;;;;;;;;;;;;;;6180330;23;19919;-86
2023/09/12 10:28:35;;;;;;;;;;;;;;;;;;6180224;23;19912;-86
2023/09/12 10:31:01;;;;;;;;;;;;;;;;;;6152706;23;19904;-86
2023/09/12 10:33:31;;;;;;;;;;;;;;;;;;6155560;23;19905;-85
2023/09/12 10:35:57;;;;;;;;;;;;;;;;;;6153706;23;19911;-85
2023/09/12 10:38:22;;;;;;;;;;;;;;;;;;6154116;23;19951;-86
2023/09/12 10:40:48;;;;;;;;;;;;;;;;;;6152949;23;20293;-86
2023/09/12 10:43:14;;;;;;;;;;;;;;;;;;6153786;23;19908;-86
2023/09/12 10:45:40;;;;;;;;;;;;;;;;;;6153124;23;19970;-86
2023/09/12 10:48:06;;;;;;;;;;;;;;;;;;6180126;23;20333;-86
2023/09/12 10:50:32;;;;;;;;;;;;;;;;;;6179604;23;19908;-87
2023/09/12 10:52:58;;;;;;;;;;;;;;;;;;6153422;23;20319;-86
2023/09/12 10:55:24;;;;;;;;;;;;;;;;;;6153138;23;19962;-86
2023/09/12 10:57:50;;;;;;;;;;;;;;;;;;6153097;23;19904;-86
2023/09/12 11:00:16;;;;;;;;;;;;;;;;;;6153524;23;19908;-86
2023/09/12 11:02:43;;;;;;;;;;;;;;;;;;6180487;23;20293;-86
2023/09/12 11:05:09;;;;;;;;;;;;;;;;;;6157641;22;20652;-86
2023/09/12 11:07:35;;;;;;;;;;;;;;;;;;6153854;23;19920;-86
2023/09/12 11:10:01;;;;;;;;;;;;;;;;;;6153494;23;20246;-87
2023/09/12 11:12:27;;;;;;;;;;;;;;;;;;6153872;23;19912;-86
2023/09/12 11:14:53;;;;;;;;;;;;;;;;;;6152126;23;19912;-86
2023/09/12 11:17:18;;;;;;;;;;;;;;;;;;6154429;23;19943;-87
2023/09/12 11:19:45;;;;;;;;;;;;;;;;;;6154368;23;19915;-87
2023/09/12 11:22:10;;;;;;;;;;;;;;;;;;6155210;23;19905;-88
2023/09/12 11:24:36;;;;;;;;;;;;;;;;;;6154165;23;20397;-89
2023/09/12 11:27:09;;;;;;;;;;;;;;;;;;6154224;23;19904;-88
2023/09/12 11:29:35;;;;;;;;;;;;;;;;;;6153414;23;19979;-87
2023/09/12 11:32:03;;;;;;;;;;;;;;;;;;6154086;23;19909;-87
2023/09/12 11:34:29;;;;;;;;;;;;;;;;;;6153556;23;19916;-87
2023/09/12 11:36:55;;;;;;;;;;;;;;;;;;6155245;23;19912;-88
2023/09/12 11:39:21;;;;;;;;;;;;;;;;;;6179999;23;19913;-87
2023/09/12 11:41:46;;;;;;;;;;;;;;;;;;6155537;23;19908;-87
2023/09/12 11:44:12;;;;;;;;;;;;;;;;;;6156000;23;20234;-88
2023/09/12 11:46:38;;;;;;;;;;;;;;;;;;6155705;23;19908;-87
2023/09/12 11:49:07;;;;;;;;;;;;;;;;;;6156155;23;19908;-88
2023/09/12 11:51:33;;;;;;;;;;;;;;;;;;6156538;23;19904;-87
2023/09/12 11:53:59;;;;;;;;;;;;;;;;;;6155697;23;19990;-87
2023/09/12 11:56:27;;;;;;;;;;;;;;;;;;6155526;23;20319;-88
2023/09/12 11:58:55;;;;;;;;;;;;;;;;;;6156092;23;19958;-87
2023/09/12 12:01:21;;;;;;;;;;;;;;;;;;6181936;23;19912;-88
2023/09/12 12:03:52;;;;;;;;;;;;;;;;;;6155116;23;20299;-87
2023/09/12 12:06:19;;;;;;;;;;;;;;;;;;6184336;22;20240;-88
2023/09/12 12:08:45;;;;;;;;;;;;;;;;;;6155463;23;19911;-87
2023/09/12 12:11:11;;;;;;;;;;;;;;;;;;6156440;23;19909;-87
2023/09/12 12:13:37;;;;;;;;;;;;;;;;;;6154436;23;19966;-88
2023/09/12 12:16:03;;;;;;;;;;;;;;;;;;6156305;23;19959;-87
2023/09/12 12:18:29;;;;;;;;;;;;;;;;;;6155474;23;19904;-87
2023/09/12 12:20:55;;;;;;;;;;;;;;;;;;6182232;23;19905;-87
2023/09/12 12:23:21;;;;;;;;;;;;;;;;;;6155413;23;20485;-87
2023/09/12 12:25:47;;;;;;;;;;;;;;;;;;6156089;23;19905;-87
2023/09/12 12:28:13;;;;;;;;;;;;;;;;;;6154864;23;19990;-88
2023/09/12 12:30:39;;;;;;;;;;;;;;;;;;6181975;23;19908;-87
2023/09/12 12:33:05;;;;;;;;;;;;;;;;;;6154552;23;19970;-88
2023/09/12 12:35:31;;;;;;;;;;;;;;;;;;6154791;23;20247;-88
2023/09/12 12:37:57;;;;;;;;;;;;;;;;;;6157031;23;19955;-92
2023/09/12 12:40:23;;;;;;;;;;;;;;;;;;6158558;23;19908;-93
2023/09/12 12:42:49;;;;;;;;;;;;;;;;;;6158298;23;19913;-91
2023/09/12 12:45:15;;;;;;;;;;;;;;;;;;6158157;23;19905;-90
2023/09/12 12:47:50;;;;;;;;;;;;;;;;;;6158845;23;19908;-91
2023/09/12 12:50:20;;;;;;;;;;;;;;;;;;6158724;23;20278;-90
2023/09/12 12:52:46;;;;;;;;;;;;;;;;;;6160302;23;19905;-91
2023/09/12 12:55:12;;;;;;;;;;;;;;;;;;6162858;23;19908;-93
2023/09/12 12:57:38;;;;;;;;;;;;;;;;;;6163674;23;19962;-91
2023/09/12 13:00:11;;;;;;;;;;;;;;;;;;6160622;23;19908;-92
2023/09/12 13:02:37;;;;;;;;;;;;;;;;;;6158460;23;19916;-91
2023/09/12 13:05:03;;;;;;;;;;;;;;;;;;6158507;23;19927;-91
2023/09/12 13:07:28;;;;;;;;;;;;;;;;;;6167538;23;19916;-91
2023/09/12 13:09:54;;;;;;;;;;;;;;;;;;6161729;23;19905;-92
2023/09/12 13:12:20;;;;;;;;;;;;;;;;;;6189940;23;20304;-92
2023/09/12 13:14:46;;;;;;;;;;;;;;;;;;6158539;23;19912;-91
2023/09/12 13:17:12;;;;;;;;;;;;;;;;;;6157487;23;19915;-93
2023/09/12 13:19:38;;;;;;;;;;;;;;;;;;6157736;23;20249;-92
2023/09/12 13:22:04;;;;;;;;;;;;;;;;;;6160369;23;19945;-91
2023/09/12 13:24:30;;;;;;;;;;;;;;;;;;6160746;23;19942;-90
2023/09/12 13:26:56;;;;;;;;;;;;;;;;;;6163922;23;19943;-92
2023/09/12 13:29:22;;;;;;;;;;;;;;;;;;6184372;23;19912;-91
2023/09/12 13:31:48;;;;;;;;;;;;;;;;;;6156914;23;20279;-90
2023/09/12 13:34:14;;;;;;;;;;;;;;;;;;6157075;23;19920;-90
2023/09/12 13:36:40;;;;;;;;;;;;;;;;;;6156820;23;19911;-88
2023/09/12 13:39:06;;;;;;;;;;;;;;;;;;6184295;23;19909;-88
2023/09/12 13:41:32;;;;;;;;;;;;;;;;;;6154773;23;19912;-89
2023/09/12 13:43:58;;;;;;;;;;;;;;;;;;6180867;23;19912;-88
2023/09/12 13:46:24;;;;;;;;;;;;;;;;;;6154475;23;19904;-89
2023/09/12 13:48:50;;;;;;;;;;;;;;;;;;6154103;23;19908;-88
2023/09/12 13:51:16;;;;;;;;;;;;;;;;;;6156377;23;19912;-87
2023/09/12 13:53:42;;;;;;;;;;;;;;;;;;6154355;23;19954;-88
2023/09/12 13:56:08;;;;;;;;;;;;;;;;;;6154492;23;20370;-88
2023/09/12 13:58:34;;;;;;;;;;;;;;;;;;6180212;23;19935;-88
2023/09/12 14:01:00;;;;;;;;;;;;;;;;;;6153313;23;19908;-88
2023/09/12 14:03:26;;;;;;;;;;;;;;;;;;6155020;23;19909;-87
2023/09/12 14:05:52;;;;;;;;;;;;;;;;;;6155430;23;19990;-88
2023/09/12 14:08:18;;;;;;;;;;;;;;;;;;6183943;22;19928;-89
2023/09/12 14:10:44;;;;;;;;;;;;;;;;;;6155711;23;19908;-87
2023/09/12 14:13:10;;;;;;;;;;;;;;;;;;6152955;23;19971;-88
2023/09/12 14:15:36;;;;;;;;;;;;;;;;;;6179215;23;19913;-87
2023/09/12 14:18:02;;;;;;;;;;;;;;;;;;6153199;23;19904;-88
2023/09/12 14:20:28;;;;;;;;;;;;;;;;;;6154174;23;20510;-90
2023/09/12 14:22:54;;;;;;;;;;;;;;;;;;6153280;23;20320;-90
2023/09/12 14:25:20;;;;;;;;;;;;;;;;;;6153628;23;20017;-87
2023/09/12 14:27:46;;;;;;;;;;;;;;;;;;6153423;23;20286;-87
2023/09/12 14:30:15;;;;;;;;;;;;;;;;;;6179640;23;20381;-86
2023/09/12 14:32:41;;;;;;;;;;;;;;;;;;6151935;23;19909;-87
2023/09/12 14:35:07;;;;;;;;;;;;;;;;;;6152849;23;19912;-87
2023/09/12 14:37:33;;;;;;;;;;;;;;;;;;6152593;23;20448;-86
2023/09/12 14:39:59;;;;;;;;;;;;;;;;;;6155215;23;19909;-88
2023/09/12 14:42:25;;;;;;;;;;;;;;;;;;6152693;23;19908;-87
2023/09/12 14:44:51;;;;;;;;;;;;;;;;;;6153552;23;19909;-87
2023/09/12 14:47:17;;;;;;;;;;;;;;;;;;6152553;23;19908;-89
2023/09/12 14:49:43;;;;;;;;;;;;;;;;;;6155086;23;19908;-87
2023/09/12 14:52:09;;;;;;;;;;;;;;;;;;6153155;23;19908;-87
2023/09/12 14:54:35;;;;;;;;;;;;;;;;;;6153780;23;19908;-88
2023/09/12 14:57:01;;;;;;;;;;;;;;;;;;6154330;23;19911;-87
2023/09/12 14:59:27;;;;;;;;;;;;;;;;;;6154719;23;19904;-86
2023/09/12 15:01:53;;;;;;;;;;;;;;;;;;6153249;23;19987;-87
2023/09/12 15:04:28;;;;;;;;;;;;;;;;;;6154951;23;19938;-85
2023/09/12 15:06:54;;;;;;;;;;;;;;;;;;6153816;23;19957;-86
2023/09/12 15:09:20;;;;;;;;;;;;;;;;;;6182667;22;19920;-86
2023/09/12 15:11:46;;;;;;;;;;;;;;;;;;6153219;23;19936;-86
2023/09/12 15:14:12;;;;;;;;;;;;;;;;;;6151672;23;19934;-85
2023/09/12 15:16:38;;;;;;;;;;;;;;;;;;6153391;23;19904;-86
2023/09/12 15:19:04;;;;;;;;;;;;;;;;;;6156424;23;19927;-88
2023/09/12 15:21:29;;;;;;;;;;;;;;;;;;6155815;23;20350;-88
2023/09/12 15:23:55;;;;;;;;;;;;;;;;;;6156434;23;19904;-88
2023/09/12 15:26:21;;;;;;;;;;;;;;;;;;6155968;23;19914;-88
2023/09/12 15:28:48;;;;;;;;;;;;;;;;;;6154708;23;19983;-88
2023/09/12 15:31:14;;;;;;;;;;;;;;;;;;6155036;23;19912;-88
2023/09/12 15:33:39;;;;;;;;;;;;;;;;;;6154854;23;19962;-88
2023/09/12 15:36:05;;;;;;;;;;;;;;;;;;6155154;23;19908;-89
2023/09/12 15:38:31;;;;;;;;;;;;;;;;;;6155096;23;19904;-88
2023/09/12 15:41:00;;;;;;;;;;;;;;;;;;6155497;23;19962;-88
2023/09/12 15:43:26;;;;;;;;;;;;;;;;;;6181637;23;20200;-88
2023/09/12 15:45:52;;;;;;;;;;;;;;;;;;6180898;23;20234;-88
2023/09/12 15:48:18;;;;;;;;;;;;;;;;;;6155156;23;19908;-88
2023/09/12 15:50:44;;;;;;;;;;;;;;;;;;6155495;23;19904;-87
2023/09/12 15:53:10;;;;;;;;;;;;;;;;;;6155345;23;19909;-88
2023/09/12 15:55:36;;;;;;;;;;;;;;;;;;6155632;23;19919;-88
2023/09/12 15:58:02;;;;;;;;;;;;;;;;;;6156046;23;20402;-87
2023/09/12 16:00:28;;;;;;;;;;;;;;;;;;6156043;23;19916;-88
2023/09/12 16:02:54;;;;;;;;;;;;;;;;;;6152860;23;19905;-88
2023/09/12 16:05:20;;;;;;;;;;;;;;;;;;6155319;23;20380;-88
2023/09/12 16:07:46;;;;;;;;;;;;;;;;;;6158182;23;19913;-87
2023/09/12 16:10:14;;;;;;;;;;;;;;;;;;6155626;23;19915;-88
2023/09/12 16:12:40;;;;;;;;;;;;;;;;;;6155558;23;19904;-87
2023/09/12 16:15:06;;;;;;;;;;;;;;;;;;6156230;23;20345;-88
2023/09/12 16:17:43;;;;;;;;;;;;;;;;;;6156220;23;19905;-88
2023/09/12 16:20:09;;;;;;;;;;;;;;;;;;6155739;23;19967;-87
2023/09/12 16:22:36;;;;;;;;;;;;;;;;;;6156482;23;20439;-87
2023/09/12 16:25:02;;;;;;;;;;;;;;;;;;6155955;23;19914;-87
2023/09/12 16:27:28;;;;;;;;;;;;;;;;;;6155407;23;20338;-87
2023/09/12 16:29:54;;;;;;;;;;;;;;;;;;6155432;23;19939;-88
2023/09/12 16:32:19;;;;;;;;;;;;;;;;;;6155353;23;20019;-87
2023/09/12 16:34:46;;;;;;;;;;;;;;;;;;6155528;23;19912;-87
2023/09/12 16:37:12;;;;;;;;;;;;;;;;;;6155803;23;19911;-87
2023/09/12 16:39:41;;;;;;;;;;;;;;;;;;6155582;23;19905;-87
2023/09/12 16:42:07;;;;;;;;;;;;;;;;;;6155384;23;20254;-87
2023/09/12 16:44:33;;;;;;;;;;;;;;;;;;6156255;23;19967;-88
2023/09/12 16:46:59;;;;;;;;;;;;;;;;;;6153339;23;19912;-88
2023/09/12 16:49:25;;;;;;;;;;;;;;;;;;6182157;23;19979;-88